Time;durP1;ratioP1;P1;durP2;ratioP2;P2;SDS_P1;SDS_P2;PMS_P1;PMS_P2;Temp;Humidity;BMP_temperature;BMP_pressure;BME280_temperature;BME280_humidity;BME280_pressure;Samples;Min_cycle;Max_cycle;Signal;HPM_P1;HPM_P2
2022/10/04 00:01:57;;;;;;;13.40;6.10;;;;;;;9.07;99.15;98451.98;105000;1284;145993;-76
2022/10/04 00:04:38;;;;;;;13.40;5.30;;;;;;;9.07;99.11;98450.99;105361;1284;137852;-75
2022/10/04 00:07:16;;;;;;;10.90;5.00;;;;;;;9.06;99.11;98451.68;105101;1284;22564;-76
2022/10/04 00:10:01;;;;;;;9.80;5.90;;;;;;;9.04;99.00;98450.83;105294;1284;30758;-76
2022/10/04 00:12:39;;;;;;;10.90;6.10;;;;;;;9.03;99.05;98449.93;105268;1284;137556;-75
2022/10/04 00:15:30;;;;;;;11.70;5.90;;;;;;;9.02;98.99;98458.55;105191;1284;24285;-75
2022/10/04 00:18:24;;;;;;;17.70;7.80;;;;;;;9.00;99.07;98458.13;105095;1284;138395;-75
2022/10/04 00:20:52;;;;;;;16.70;6.60;;;;;;;8.99;99.12;98450.88;104953;1284;22652;-75
2022/10/04 00:23:37;;;;;;;16.50;7.30;;;;;;;8.99;99.17;98448.91;104881;1284;137680;-74
2022/10/04 00:26:10;;;;;;;11.30;6.00;;;;;;;8.98;99.35;98450.73;105395;1284;22580;-75
2022/10/04 00:28:36;;;;;;;12.40;6.40;;;;;;;8.96;99.15;98450.63;105029;1284;137765;-75
2022/10/04 00:31:25;;;;;;;15.90;6.20;;;;;;;8.96;99.17;98447.80;105109;1283;22728;-75
2022/10/04 00:34:07;;;;;;;10.30;5.80;;;;;;;8.94;99.09;98449.16;105277;1284;24399;-75
2022/10/04 00:36:43;;;;;;;15.40;6.30;;;;;;;8.90;99.04;98447.13;105126;1284;137888;-74
2022/10/04 00:39:10;;;;;;;14.90;6.40;;;;;;;8.88;99.00;98440.66;105508;1280;22553;-74
2022/10/04 00:42:19;;;;;;;11.10;6.20;;;;;;;8.87;99.02;98439.50;105436;1278;138011;-74
2022/10/04 00:45:07;;;;;;;15.30;6.40;;;;;;;8.86;99.24;98438.77;105524;1281;22550;-74
2022/10/04 00:48:00;;;;;;;14.40;7.60;;;;;;;8.84;99.28;98434.88;105466;1281;137662;-75
2022/10/04 00:50:35;;;;;;;13.00;7.40;;;;;;;8.82;99.23;98434.81;105786;1279;30218;-74
2022/10/04 00:53:11;;;;;;;14.10;7.60;;;;;;;8.81;99.32;98437.93;105559;1280;138001;-74
2022/10/04 00:55:55;;;;;;;12.70;7.10;;;;;;;8.79;99.43;98432.29;105536;1280;23997;-75
2022/10/04 00:58:44;;;;;;;11.10;5.80;;;;;;;8.78;99.57;98438.35;105520;1280;138003;-73
2022/10/04 01:01:11;;;;;;;9.70;6.60;;;;;;;8.76;99.53;98436.45;105471;1280;29761;-75
2022/10/04 01:03:42;;;;;;;11.10;7.10;;;;;;;8.75;99.67;98440.40;105674;1279;24390;-74
2022/10/04 01:06:12;;;;;;;9.30;6.30;;;;;;;8.75;99.92;98437.02;105555;1280;138040;-74
2022/10/04 01:08:48;;;;;;;7.80;4.90;;;;;;;8.73;99.88;98438.73;105712;1279;25267;-75
2022/10/04 01:11:22;;;;;;;11.10;4.80;;;;;;;8.71;99.54;98434.98;105529;1280;137631;-75
2022/10/04 01:13:56;;;;;;;8.80;5.30;;;;;;;8.71;99.28;98434.00;105392;1281;24383;-75
2022/10/04 01:16:32;;;;;;;9.60;5.20;;;;;;;8.71;99.48;98439.59;105580;1280;137715;-74
2022/10/04 01:19:19;;;;;;;10.90;5.40;;;;;;;8.71;99.58;98441.98;105813;1280;24292;-75
2022/10/04 01:21:56;;;;;;;14.00;6.10;;;;;;;8.71;99.74;98439.10;105547;1281;29999;-75
2022/10/04 01:24:23;;;;;;;12.10;5.90;;;;;;;8.72;99.72;98433.77;105503;1281;137864;-75
2022/10/04 01:26:50;;;;;;;13.00;7.10;;;;;;;8.74;99.77;98436.36;105573;1280;22573;-75
2022/10/04 01:29:28;;;;;;;20.40;8.30;;;;;;;8.77;99.88;98433.33;105518;1280;139205;-75
2022/10/04 01:31:57;;;;;;;17.10;8.20;;;;;;;8.78;100.00;98432.09;105509;1280;24331;-75
2022/10/04 01:34:29;;;;;;;18.90;8.70;;;;;;;8.78;100.00;98434.12;105459;1280;138596;-75
2022/10/04 01:36:59;;;;;;;17.70;8.90;;;;;;;8.79;100.00;98433.06;105554;1280;24293;-75
2022/10/04 01:39:30;;;;;;;14.60;9.60;;;;;;;8.81;100.00;98431.37;105615;1280;25545;-75
2022/10/04 01:42:05;;;;;;;15.60;9.00;;;;;;;8.81;100.00;98431.70;105467;1281;138418;-75
2022/10/04 01:45:04;;;;;;;16.00;9.70;;;;;;;8.82;100.00;98429.10;105504;1280;25382;-75
2022/10/04 01:47:34;;;;;;;22.40;10.40;;;;;;;8.83;100.00;98432.12;105382;1280;139000;-75
2022/10/04 01:50:07;;;;;;;18.70;10.70;;;;;;;8.83;100.00;98434.13;105567;1279;22583;-74
2022/10/04 01:52:49;;;;;;;18.70;10.00;;;;;;;8.84;100.00;98438.83;105373;1280;138547;-74
2022/10/04 01:55:23;;;;;;;18.10;10.60;;;;;;;8.85;100.00;98434.77;105181;1283;23389;-75
2022/10/04 01:58:08;;;;;;;20.90;10.00;;;;;;;8.85;100.00;98436.70;105654;1280;22570;-75
2022/10/04 02:00:54;;;;;;;20.20;10.20;;;;;;;8.86;100.00;98438.28;105459;1280;137712;-75
2022/10/04 02:03:32;;;;;;;16.20;9.00;;;;;;;8.85;100.00;98436.20;105492;1279;22712;-75
2022/10/04 02:06:04;;;;;;;19.70;10.20;;;;;;;8.84;100.00;98431.77;105362;1281;137898;-75
2022/10/04 02:08:35;;;;;;;14.80;8.20;;;;;;;8.85;100.00;98431.52;105334;1281;24430;-75
2022/10/04 02:11:04;;;;;;;17.10;8.50;;;;;;;8.84;100.00;98431.20;105366;1280;137887;-75
2022/10/04 02:13:41;;;;;;;16.60;8.60;;;;;;;8.84;100.00;98431.61;105436;1280;22548;-75
2022/10/04 02:16:10;;;;;;;15.40;8.30;;;;;;;8.85;100.00;98430.35;105496;1279;22751;-75
2022/10/04 02:18:42;;;;;;;18.40;8.40;;;;;;;8.85;100.00;98431.42;105392;1280;139298;-75
2022/10/04 02:21:10;;;;;;;14.00;8.90;;;;;;;8.85;100.00;98430.09;105549;1280;25332;-74
2022/10/04 02:23:40;;;;;;;14.70;8.10;;;;;;;8.84;100.00;98432.63;105330;1280;137701;-74
2022/10/04 02:26:11;;;;;;;14.00;8.40;;;;;;;8.83;99.99;98432.88;105458;1280;22597;-74
2022/10/04 02:28:40;;;;;;;14.00;8.60;;;;;;;8.81;99.98;98424.14;105311;1281;137699;-76
2022/10/04 02:33:57;;;;;;;15.10;6.40;;;;;;;8.79;99.96;98423.33;105644;1280;24349;-77
2022/10/04 02:36:27;;;;;;;15.20;7.20;;;;;;;8.78;99.97;98429.00;105384;1280;137831;-76
2022/10/04 02:39:16;;;;;;;11.40;7.40;;;;;;;8.77;99.98;98428.27;105563;1280;22573;-75
2022/10/04 02:42:47;;;;;;;11.90;6.20;;;;;;;8.74;99.84;98427.13;105281;1280;138404;-76
2022/10/04 02:45:35;;;;;;;14.20;6.30;;;;;;;8.70;99.58;98425.90;104535;1289;25460;-73
2022/10/04 02:48:21;;;;;;;10.40;6.10;;;;;;;8.68;99.50;98426.65;104828;1289;138802;-74
2022/10/04 02:50:52;;;;;;;13.50;6.50;;;;;;;8.65;99.35;98429.33;105012;1289;22750;-74
2022/10/04 02:53:36;;;;;;;11.50;5.00;;;;;;;8.61;99.12;98425.05;104929;1287;137816;-74
2022/10/04 02:56:03;;;;;;;12.30;5.10;;;;;;;8.55;98.94;98424.98;104843;1286;22718;-75
2022/10/04 02:58:37;;;;;;;7.70;4.70;;;;;;;8.51;98.67;98416.52;104788;1286;139398;-76
2022/10/04 03:01:06;;;;;;;7.70;4.80;;;;;;;8.47;98.54;98414.89;104888;1286;22558;-76
2022/10/04 03:03:39;;;;;;;11.70;4.70;;;;;;;8.43;98.28;98417.89;105055;1287;22671;-75
2022/10/04 03:06:19;;;;;;;12.10;5.30;;;;;;;8.39;98.73;98423.88;104858;1288;138127;-74
2022/10/04 03:08:51;;;;;;;9.60;5.10;;;;;;;8.36;98.59;98424.40;104767;1287;25343;-75
2022/10/04 03:11:23;;;;;;;11.10;5.00;;;;;;;8.33;98.45;98428.86;104962;1287;137819;-74
2022/10/04 03:13:57;;;;;;;11.50;5.30;;;;;;;8.28;98.80;98426.42;104793;1286;24002;-75
2022/10/04 03:16:24;;;;;;;11.70;5.80;;;;;;;8.25;98.91;98427.85;105042;1280;138368;-74
2022/10/04 03:18:55;;;;;;;13.30;6.10;;;;;;;8.22;98.92;98425.43;105498;1280;22623;-74
2022/10/04 03:21:23;;;;;;;15.60;6.30;;;;;;;8.19;99.28;98424.59;105678;1280;22620;-74
2022/10/04 03:23:52;;;;;;;13.60;6.30;;;;;;;8.17;99.55;98420.04;105437;1280;137736;-74
2022/10/04 03:26:42;;;;;;;13.30;6.00;;;;;;;8.15;99.20;98416.52;105578;1280;22553;-73
2022/10/04 03:29:12;;;;;;;16.30;7.50;;;;;;;8.14;99.77;98412.74;105490;1280;137760;-73
2022/10/04 03:31:49;;;;;;;15.10;8.10;;;;;;;8.13;99.82;98424.39;105382;1280;24239;-73
2022/10/04 03:34:40;;;;;;;25.90;9.70;;;;;;;8.12;99.96;98430.98;105410;1280;23970;-73
2022/10/04 03:37:16;;;;;;;18.00;7.80;;;;;;;8.13;100.00;98433.83;105493;1280;30795;-74
2022/10/04 03:40:08;;;;;;;18.20;8.60;;;;;;;8.13;100.00;98440.23;105353;1280;26661;-75
2022/10/04 03:42:43;;;;;;;16.00;8.60;;;;;;;8.15;100.00;98447.40;105408;1280;137897;-74
2022/10/04 03:45:19;;;;;;;12.00;6.20;;;;;;;8.17;100.00;98445.54;105447;1280;23219;-75
2022/10/04 03:47:52;;;;;;;17.00;7.40;;;;;;;8.19;100.00;98452.94;105440;1280;138831;-75
2022/10/04 03:50:25;;;;;;;15.60;7.90;;;;;;;8.21;100.00;98446.90;105598;1280;22563;-74
2022/10/04 03:52:55;;;;;;;17.70;7.30;;;;;;;8.23;100.00;98447.75;105619;1280;138550;-74
2022/10/04 03:55:33;;;;;;;33.00;9.30;;;;;;;8.24;100.00;98443.45;105630;1280;24264;-76
2022/10/04 03:58:01;;;;;;;13.60;7.90;;;;;;;8.26;100.00;98437.53;105548;1280;22573;-73
2022/10/04 04:00:36;;;;;;;14.80;8.20;;;;;;;8.26;100.00;98436.84;105365;1280;138104;-73
2022/10/04 04:03:08;;;;;;;14.50;7.70;;;;;;;8.29;100.00;98441.40;105383;1280;22554;-73
2022/10/04 04:05:43;;;;;;;22.80;8.60;;;;;;;8.30;100.00;98444.52;105276;1280;138256;-73
2022/10/04 04:08:36;;;;;;;18.90;7.90;;;;;;;8.31;100.00;98445.09;105401;1280;22577;-73
2022/10/04 04:11:17;;;;;;;15.20;7.40;;;;;;;8.32;100.00;98453.22;105359;1280;138588;-74
2022/10/04 04:13:57;;;;;;;15.70;8.40;;;;;;;8.33;100.00;98452.11;105399;1280;25323;-74
2022/10/04 04:16:27;;;;;;;12.70;8.20;;;;;;;8.33;100.00;98449.55;105349;1281;138848;-73
2022/10/04 04:19:00;;;;;;;16.90;7.50;;;;;;;8.33;100.00;98453.52;105764;1280;24071;-74
2022/10/04 04:21:29;;;;;;;14.40;7.20;;;;;;;8.35;100.00;98454.91;105539;1280;24428;-74
2022/10/04 04:24:13;;;;;;;12.30;7.80;;;;;;;8.35;100.00;98460.09;105535;1280;138470;-73
2022/10/04 04:26:44;;;;;;;16.00;7.10;;;;;;;8.35;100.00;98464.31;105678;1280;22557;-74
2022/10/04 04:29:22;;;;;;;10.30;6.40;;;;;;;8.35;100.00;98468.87;105644;1280;138920;-74
2022/10/04 04:31:58;;;;;;;11.40;5.90;;;;;;;8.33;100.00;98474.16;105396;1283;22547;-73
2022/10/04 04:34:34;;;;;;;9.50;5.00;;;;;;;8.33;100.00;98473.53;105124;1283;138622;-73
2022/10/04 04:37:03;;;;;;;10.10;4.70;;;;;;;8.30;99.95;98470.27;105554;1280;22600;-73
2022/10/04 04:39:41;;;;;;;10.40;4.60;;;;;;;8.30;99.93;98471.81;105631;1279;23559;-73
2022/10/04 04:42:11;;;;;;;9.00;4.40;;;;;;;8.26;100.00;98473.04;105450;1279;138398;-73
2022/10/04 04:44:52;;;;;;;10.30;5.10;;;;;;;8.24;99.78;98477.91;105563;1279;25340;-74
2022/10/04 04:47:49;;;;;;;10.80;4.90;;;;;;;8.22;99.85;98478.32;105466;1280;138762;-73
2022/10/04 04:50:23;;;;;;;10.80;4.70;;;;;;;8.19;99.54;98473.59;105589;1281;32011;-73
2022/10/04 04:53:02;;;;;;;9.60;3.90;;;;;;;8.17;99.43;98473.92;105376;1281;138666;-73
2022/10/04 04:55:41;;;;;;;9.80;5.00;;;;;;;8.14;99.50;98466.95;105608;1280;25335;-73
2022/10/04 04:58:18;;;;;;;11.80;4.60;;;;;;;8.12;99.45;98469.92;105595;1279;24358;-75
2022/10/04 05:01:07;;;;;;;12.30;4.70;;;;;;;8.12;99.56;98479.03;105629;1280;137654;-74
2022/10/04 05:03:34;;;;;;;8.20;3.70;;;;;;;8.12;99.55;98470.85;105525;1280;23819;-74
2022/10/04 05:06:03;;;;;;;12.00;4.60;;;;;;;8.13;99.72;98476.31;105459;1279;138663;-74
2022/10/04 05:08:32;;;;;;;12.10;4.70;;;;;;;8.14;99.69;98484.55;105744;1280;25318;-74
2022/10/04 05:11:12;;;;;;;13.90;5.30;;;;;;;8.18;99.88;98488.77;105728;1279;139057;-74
2022/10/04 05:13:44;;;;;;;;;;;;;;;8.21;99.79;98493.60;105566;1279;24318;-73
2022/10/04 05:16:18;;;;;;;14.10;6.40;;;;;;;8.23;100.00;98497.83;105601;1280;22552;-73
2022/10/04 05:18:46;;;;;;;9.30;5.90;;;;;;;8.26;100.00;98503.34;105916;1278;137772;-73
2022/10/04 05:21:27;;;;;;;11.80;6.00;;;;;;;8.29;100.00;98502.41;105943;1278;23921;-74
2022/10/04 05:23:57;;;;;;;13.10;6.90;;;;;;;8.33;100.00;98506.00;105801;1278;138667;-74
2022/10/04 05:26:32;;;;;;;13.80;6.70;;;;;;;8.38;100.00;98508.23;105756;1277;22556;-74
2022/10/04 05:29:08;;;;;;;13.70;6.20;;;;;;;8.41;100.00;98508.16;105508;1278;138610;-74
2022/10/04 05:31:47;;;;;;;11.30;5.30;;;;;;;8.45;100.00;98519.11;105707;1279;24299;-74
2022/10/04 05:34:26;;;;;;;14.00;6.30;;;;;;;8.49;100.00;98517.84;105624;1279;22835;-73
2022/10/04 05:36:53;;;;;;;;;;;;;;;8.53;100.00;98521.92;105500;1279;22528;-73
2022/10/04 05:39:28;;;;;;;9.30;5.00;;;;;;;8.56;99.95;98518.88;105562;1280;24227;-73
2022/10/04 05:42:26;;;;;;;9.60;4.70;;;;;;;8.60;99.74;98527.17;105414;1279;138096;-73
2022/10/04 05:44:55;;;;;;;9.00;4.20;;;;;;;8.66;99.47;98535.03;105851;1279;25411;-74
2022/10/04 05:47:26;;;;;;;11.80;5.10;;;;;;;8.70;99.07;98538.44;105525;1279;138261;-73
2022/10/04 05:49:56;;;;;;;10.40;3.90;;;;;;;8.73;98.88;98537.55;105915;1279;24438;-73
2022/10/04 05:52:29;;;;;;;12.20;4.50;;;;;;;8.75;98.86;98540.11;105567;1280;138801;-73
2022/10/04 05:55:11;;;;;;;10.00;4.60;;;;;;;8.78;98.65;98546.58;105596;1283;25237;-73
2022/10/04 05:58:06;;;;;;;12.30;5.30;;;;;;;8.81;98.41;98555.77;105510;1280;22707;-74
2022/10/04 06:00:48;;;;;;;12.70;4.30;;;;;;;8.84;98.21;98554.78;105303;1280;138056;-73
2022/10/04 06:03:37;;;;;;;14.30;4.90;;;;;;;8.87;98.23;98556.77;105586;1280;22578;-73
2022/10/04 06:06:25;;;;;;;12.20;4.50;;;;;;;8.91;98.09;98555.55;105438;1280;137895;-73
2022/10/04 06:09:26;;;;;;;10.30;4.60;;;;;;;8.94;97.61;98559.34;105597;1281;22881;-73
2022/10/04 06:12:21;;;;;;;15.70;4.90;;;;;;;8.99;97.52;98568.60;105517;1283;138448;-74
2022/10/04 06:15:16;;;;;;;8.10;3.50;;;;;;;9.02;97.06;98569.80;105557;1280;22569;-73
2022/10/04 06:18:01;;;;;;;8.40;2.90;;;;;;;9.05;96.47;98573.80;105469;1280;137741;-74
2022/10/04 06:20:57;;;;;;;9.00;3.40;;;;;;;9.08;96.08;98572.41;105474;1280;22574;-73
2022/10/04 06:23:29;;;;;;;9.10;3.60;;;;;;;9.14;96.10;98571.67;105510;1280;137800;-74
2022/10/04 06:26:09;;;;;;;8.40;4.20;;;;;;;9.17;95.81;98573.33;105544;1280;24247;-73
2022/10/04 06:28:42;;;;;;;11.80;4.20;;;;;;;9.22;95.76;98574.04;105491;1280;137903;-73
2022/10/04 06:31:23;;;;;;;8.90;3.40;;;;;;;9.26;95.41;98579.63;105578;1280;25691;-72
2022/10/04 06:34:14;;;;;;;10.60;3.60;;;;;;;9.29;95.05;98583.37;105600;1280;25270;-72
2022/10/04 06:36:56;;;;;;;9.40;3.50;;;;;;;9.34;94.76;98584.77;105411;1280;137757;-73
2022/10/04 06:39:48;;;;;;;7.00;3.70;;;;;;;9.37;94.87;98585.03;105522;1280;22766;-73
2022/10/04 06:42:33;;;;;;;7.80;3.60;;;;;;;9.41;94.65;98580.44;105481;1280;138160;-72
2022/10/04 06:45:39;;;;;;;5.80;3.60;;;;;;;9.44;94.27;98578.88;105914;1279;22696;-72
2022/10/04 06:48:15;;;;;;;9.90;4.50;;;;;;;9.47;94.17;98585.23;105427;1279;137704;-72
2022/10/04 06:50:55;;;;;;;8.60;3.60;;;;;;;9.51;93.74;98594.77;105547;1279;22555;-73
2022/10/04 06:53:46;;;;;;;5.70;3.50;;;;;;;9.56;93.68;98597.61;105535;1280;137762;-73
2022/10/04 06:56:32;;;;;;;8.30;3.70;;;;;;;9.66;93.38;98602.76;105796;1280;28231;-73
2022/10/04 06:59:12;;;;;;;9.20;3.80;;;;;;;9.75;93.26;98607.58;105622;1280;138273;-72
2022/10/04 07:01:59;;;;;;;9.50;4.10;;;;;;;9.80;92.33;98609.64;105573;1280;22564;-73
2022/10/04 07:04:29;;;;;;;8.30;4.10;;;;;;;9.82;92.09;98616.30;105370;1280;137892;-73
2022/10/04 07:07:34;;;;;;;10.70;4.20;;;;;;;9.82;92.16;98617.42;105492;1280;22691;-72
2022/10/04 07:10:07;;;;;;;10.60;4.60;;;;;;;9.83;92.05;98625.41;105434;1279;22554;-73
2022/10/04 07:12:40;;;;;;;13.60;4.40;;;;;;;9.85;92.30;98626.96;106323;1280;139253;-73
2022/10/04 07:15:25;;;;;;;10.80;4.60;;;;;;;9.87;92.32;98632.23;105490;1279;24361;-72
2022/10/04 07:17:55;;;;;;;12.20;4.30;;;;;;;9.90;91.81;98638.55;105393;1280;138407;-73
2022/10/04 07:20:26;;;;;;;7.90;4.30;;;;;;;9.94;91.47;98640.98;105454;1279;22572;-71
2022/10/04 07:23:04;;;;;;;7.40;3.80;;;;;;;9.96;90.66;98642.45;105416;1280;138117;-71
2022/10/04 07:25:46;;;;;;;9.90;3.90;;;;;;;9.98;90.74;98645.05;105451;1280;24248;-71
2022/10/04 07:31:16;;;;;;;11.80;4.00;;;;;;;10.09;90.67;98646.13;105824;1280;25466;-72
2022/10/04 07:33:53;;;;;;;10.70;3.80;;;;;;;10.14;90.35;98649.01;105844;1282;30731;-72
2022/10/04 07:36:26;;;;;;;10.90;4.70;;;;;;;10.18;89.76;98650.52;105491;1280;138156;-72
2022/10/04 07:39:19;;;;;;;7.10;3.70;;;;;;;10.22;90.18;98648.32;105384;1280;22812;-72
2022/10/04 07:41:52;;;;;;;10.30;4.20;;;;;;;10.29;90.25;98657.30;104647;1286;138045;-72
2022/10/04 07:44:27;;;;;;;9.20;4.30;;;;;;;10.33;89.51;98661.40;105090;1286;22566;-73
2022/10/04 07:47:04;;;;;;;8.60;3.30;;;;;;;10.36;89.44;98663.02;104783;1286;138481;-72
2022/10/04 07:49:38;;;;;;;9.10;3.50;;;;;;;10.35;88.34;98668.02;104784;1287;22575;-73
2022/10/04 07:52:30;;;;;;;11.90;4.70;;;;;;;10.32;87.58;98674.81;104801;1287;25267;-73
2022/10/04 07:55:27;;;;;;;8.90;3.60;;;;;;;10.31;87.93;98679.98;104930;1287;34567;-73
2022/10/04 07:58:22;;;;;;;11.70;3.90;;;;;;;10.31;87.83;98683.39;103930;1295;24539;-72
2022/10/04 08:01:12;;;;;;;14.90;4.20;;;;;;;10.32;87.04;98678.34;103762;1297;22739;-72
2022/10/04 08:04:09;;;;;;;8.80;4.00;;;;;;;10.36;88.15;98679.20;103264;1300;25495;-71
2022/10/04 08:06:51;;;;;;;10.30;3.40;;;;;;;10.44;88.57;98679.55;103434;1300;138329;-72
2022/10/04 08:09:27;;;;;;;13.10;4.10;;;;;;;10.50;88.04;98679.77;103492;1298;23975;-72
2022/10/04 08:12:17;;;;;;;11.60;4.40;;;;;;;10.54;87.54;98680.90;103437;1300;138920;-72
2022/10/04 08:15:17;;;;;;;11.60;3.40;;;;;;;10.57;87.65;98685.80;103511;1300;30417;-72
2022/10/04 08:18:07;;;;;;;11.40;3.50;;;;;;;10.59;87.52;98689.07;103475;1298;139807;-72
2022/10/04 08:20:47;;;;;;;8.20;4.10;;;;;;;10.61;87.49;98696.69;103845;1294;25496;-72
2022/10/04 08:23:23;;;;;;;9.00;5.00;;;;;;;10.64;86.67;98692.27;103788;1294;138019;-72
2022/10/04 08:26:01;;;;;;;7.60;3.30;;;;;;;10.68;86.78;98694.75;103887;1293;25520;-72
2022/10/04 08:31:55;;;;;;;12.70;4.10;;;;;;;10.71;85.89;98701.48;104246;1292;25393;-72
2022/10/04 08:34:53;;;;;;;11.70;4.00;;;;;;;10.74;86.24;98704.15;104119;1286;138235;-71
2022/10/04 08:37:32;;;;;;;8.70;3.60;;;;;;;10.77;85.86;98706.14;104435;1292;22585;-72
2022/10/04 08:40:38;;;;;;;9.30;3.50;;;;;;;10.76;85.44;98708.94;104224;1292;24425;-72
2022/10/04 08:43:28;;;;;;;12.50;3.50;;;;;;;10.72;85.07;98710.81;104672;1289;24404;-72
2022/10/04 08:45:55;;;;;;;8.20;3.50;;;;;;;10.70;85.16;98715.41;105096;1285;30913;-72
2022/10/04 08:48:42;;;;;;;8.50;4.30;;;;;;;10.70;84.31;98712.90;104732;1287;137957;-72
2022/10/04 08:51:14;;;;;;;9.60;3.50;;;;;;;10.69;84.80;98711.83;104698;1287;24000;-72
2022/10/04 08:53:44;;;;;;;9.50;3.30;;;;;;;10.70;85.06;98721.92;104860;1289;138007;-73
2022/10/04 08:56:37;;;;;;;8.50;3.20;;;;;;;10.70;84.96;98720.20;105102;1287;30625;-73
2022/10/04 08:59:34;;;;;;;10.90;3.20;;;;;;;10.73;85.48;98723.41;104795;1286;140263;-72
2022/10/04 09:02:38;;;;;;;10.00;3.80;;;;;;;10.74;85.35;98719.52;104715;1286;26732;-72
2022/10/04 09:05:16;;;;;;;10.40;3.70;;;;;;;10.77;85.02;98725.05;104637;1286;138368;-72
2022/10/04 09:08:14;;;;;;;10.50;3.80;;;;;;;10.81;84.85;98726.86;104783;1286;22579;-72
2022/10/04 09:10:44;;;;;;;8.90;3.10;;;;;;;10.88;85.24;98733.33;104419;1288;138929;-72
2022/10/04 09:13:35;;;;;;;8.00;3.00;;;;;;;10.95;84.56;98740.70;104645;1288;25398;-72
2022/10/04 09:16:29;;;;;;;9.60;3.00;;;;;;;10.97;84.20;98740.05;105699;1280;24405;-72
2022/10/04 09:19:34;;;;;;;6.80;3.40;;;;;;;11.04;84.31;98745.04;105680;1278;22763;-71
2022/10/04 09:22:22;;;;;;;10.60;4.20;;;;;;;11.11;84.38;98750.04;105554;1278;22554;-72
2022/10/04 09:24:58;;;;;;;8.00;4.00;;;;;;;11.16;83.75;98753.77;105338;1280;138084;-72
2022/10/04 09:27:43;;;;;;;9.80;3.60;;;;;;;11.17;83.82;98750.81;105538;1280;25375;-72
2022/10/04 09:30:19;;;;;;;7.50;4.10;;;;;;;11.22;84.01;98753.70;105487;1280;137881;-72
2022/10/04 09:32:58;;;;;;;11.80;4.60;;;;;;;11.27;83.65;98757.02;105500;1279;23069;-72
2022/10/04 09:35:40;;;;;;;10.40;4.10;;;;;;;11.32;83.70;98753.89;105606;1278;138563;-73
2022/10/04 09:38:22;;;;;;;11.30;4.20;;;;;;;11.41;83.82;98753.58;105413;1279;22580;-72
2022/10/04 09:40:52;;;;;;;15.10;4.80;;;;;;;11.49;83.08;98757.17;105313;1279;138201;-72
2022/10/04 09:43:41;;;;;;;12.10;4.30;;;;;;;11.54;83.04;98760.77;105504;1279;22555;-71
2022/10/04 09:46:32;;;;;;;8.40;4.10;;;;;;;11.61;82.62;98767.33;105523;1280;27227;-70
2022/10/04 09:49:35;;;;;;;9.10;3.70;;;;;;;11.60;82.69;98769.88;105381;1280;24365;-72
2022/10/04 09:52:20;;;;;;;10.00;4.10;;;;;;;11.57;82.61;98772.10;104311;1291;25284;-72
2022/10/04 09:55:03;;;;;;;9.70;3.60;;;;;;;11.55;82.79;98776.15;104423;1289;138496;-72
2022/10/04 09:57:47;;;;;;;7.90;3.90;;;;;;;11.51;82.24;98777.61;104716;1289;30591;-72
2022/10/04 10:00:37;;;;;;;6.90;3.40;;;;;;;11.47;82.26;98779.48;104629;1289;140591;-72
2022/10/04 10:03:11;;;;;;;7.50;3.50;;;;;;;11.47;82.79;98784.45;104647;1288;26173;-72
2022/10/04 10:06:02;;;;;;;8.80;3.60;;;;;;;11.44;81.60;98786.91;104376;1289;138218;-72
2022/10/04 10:08:39;;;;;;;7.30;3.30;;;;;;;11.42;81.76;98783.60;104574;1289;22596;-73
2022/10/04 10:14:06;;;;;;;;;;;;;;;11.54;80.96;98781.42;104572;1289;22752;-73
2022/10/04 10:16:58;;;;;;;5.20;2.40;;;;;;;11.62;80.99;98780.48;104407;1289;125033;-72
2022/10/04 10:19:57;;;;;;;6.30;2.40;;;;;;;11.72;80.68;98784.83;104584;1289;22829;-72
2022/10/04 10:22:43;;;;;;;8.30;2.90;;;;;;;11.81;80.59;98788.59;104599;1289;22663;-73
2022/10/04 10:25:25;;;;;;;6.40;2.90;;;;;;;11.87;79.57;98787.51;104680;1288;22560;-72
2022/10/04 10:28:11;;;;;;;5.50;2.70;;;;;;;11.91;79.23;98789.67;104660;1289;22620;-72
2022/10/04 10:31:12;;;;;;;9.30;3.20;;;;;;;11.95;79.05;98789.09;105291;1280;138993;-73
2022/10/04 10:33:58;;;;;;;9.90;3.50;;;;;;;11.99;78.28;98792.59;105466;1280;25300;-73
2022/10/04 10:36:57;;;;;;;4.70;3.10;;;;;;;12.04;78.02;98792.02;105195;1280;138904;-72
2022/10/04 10:39:46;;;;;;;7.10;2.80;;;;;;;12.10;77.34;98790.54;105540;1281;24264;-72
2022/10/04 10:42:37;;;;;;;6.60;3.00;;;;;;;12.19;77.38;98796.81;106217;1280;137778;-73
2022/10/04 10:45:13;;;;;;;7.50;3.20;;;;;;;12.36;77.04;98801.95;105650;1280;22554;-72
2022/10/04 10:47:59;;;;;;;10.60;3.40;;;;;;;12.58;77.30;98802.69;105347;1280;137964;-73
2022/10/04 10:50:57;;;;;;;9.40;3.00;;;;;;;12.84;77.66;98795.14;105537;1280;22639;-73
2022/10/04 10:53:44;;;;;;;10.40;3.20;;;;;;;13.01;75.71;98798.23;105393;1280;138307;-72
2022/10/04 10:56:33;;;;;;;5.30;2.20;;;;;;;13.06;75.22;98797.48;105630;1280;22601;-74
2022/10/04 10:59:34;;;;;;;3.80;2.30;;;;;;;13.10;74.69;98792.88;105447;1278;139863;-72
2022/10/04 11:02:28;;;;;;;5.50;2.10;;;;;;;13.17;74.40;98796.46;105817;1278;25400;-73
2022/10/04 11:05:32;;;;;;;6.20;2.50;;;;;;;13.26;73.81;98795.05;105365;1280;138158;-72
2022/10/04 11:08:18;;;;;;;5.80;2.20;;;;;;;13.36;73.45;98790.66;105374;1279;22566;-72
2022/10/04 11:10:58;;;;;;;5.80;2.20;;;;;;;13.49;74.06;98791.52;105730;1280;138771;-73
2022/10/04 11:13:25;;;;;;;7.60;2.10;;;;;;;13.65;73.20;98793.57;105485;1280;25389;-72
2022/10/04 11:16:16;;;;;;;4.40;1.50;;;;;;;13.73;72.10;98794.47;105438;1280;22554;-72
2022/10/04 11:19:32;;;;;;;3.50;1.40;;;;;;;13.73;69.84;98792.88;105457;1280;137916;-72
2022/10/04 11:22:23;;;;;;;3.00;1.20;;;;;;;13.76;69.57;98800.15;105384;1280;24217;-73
2022/10/04 11:25:15;;;;;;;3.00;1.10;;;;;;;13.82;69.88;98801.52;105386;1278;137757;-72
2022/10/04 11:28:12;;;;;;;5.00;1.70;;;;;;;13.89;68.24;98803.40;105439;1278;22746;-72
2022/10/04 11:30:59;;;;;;;5.20;1.40;;;;;;;13.91;68.59;98808.09;105335;1280;137856;-72
2022/10/04 11:33:53;;;;;;;7.90;1.90;;;;;;;13.95;68.28;98812.61;105387;1280;25472;-72
2022/10/04 11:36:46;;;;;;;7.10;1.50;;;;;;;13.98;67.34;98812.80;105334;1283;137983;-72
2022/10/04 11:39:18;;;;;;;3.60;1.50;;;;;;;14.04;68.36;98813.25;105430;1280;22630;-72
2022/10/04 11:42:03;;;;;;;3.50;1.30;;;;;;;14.11;67.60;98806.80;105288;1280;138350;-72
2022/10/04 11:44:39;;;;;;;6.40;1.80;;;;;;;14.27;66.91;98808.70;105383;1280;24709;-70
2022/10/04 11:47:25;;;;;;;5.70;1.70;;;;;;;14.46;67.42;98811.59;105247;1283;138234;-70
2022/10/04 11:50:20;;;;;;;7.00;2.00;;;;;;;14.55;67.30;98809.36;105381;1280;30272;-70
2022/10/04 11:52:55;;;;;;;5.20;1.90;;;;;;;14.54;67.95;98810.05;105295;1280;138258;-70
2022/10/04 11:55:25;;;;;;;5.40;1.50;;;;;;;14.63;67.02;98812.35;105632;1280;24361;-70
2022/10/04 11:58:04;;;;;;;4.90;1.40;;;;;;;14.65;65.11;98813.67;105282;1282;22560;-70
2022/10/04 12:01:00;;;;;;;4.30;1.60;;;;;;;14.67;64.09;98811.17;105573;1280;139500;-70
2022/10/04 12:03:56;;;;;;;5.80;2.30;;;;;;;14.47;64.55;98812.10;105204;1279;25351;-72
2022/10/04 12:07:01;;;;;;;6.30;1.90;;;;;;;14.35;65.29;98818.73;105352;1280;139349;-71
2022/10/04 12:09:37;;;;;;;6.10;1.90;;;;;;;14.40;65.49;98819.65;105317;1281;23962;-70
2022/10/04 12:15:15;;;;;;;4.80;1.60;;;;;;;14.63;64.44;98823.27;105387;1280;24435;-71
2022/10/04 12:18:08;;;;;;;3.60;1.50;;;;;;;14.78;63.57;98825.61;105669;1280;137833;-70
2022/10/04 12:21:21;;;;;;;7.50;2.70;;;;;;;14.62;62.29;98826.48;105475;1280;30329;-71
2022/10/04 12:24:07;;;;;;;4.60;1.80;;;;;;;14.40;63.19;98831.38;105317;1280;138300;-70
2022/10/04 12:26:44;;;;;;;5.30;1.90;;;;;;;14.24;64.23;98828.70;105497;1280;24444;-71
2022/10/04 12:29:36;;;;;;;4.40;1.90;;;;;;;14.12;64.87;98831.29;105225;1283;138319;-71
2022/10/04 12:32:27;;;;;;;6.10;2.10;;;;;;;13.99;65.09;98835.38;105408;1280;25451;-70
2022/10/04 12:35:13;;;;;;;6.70;2.40;;;;;;;13.83;66.08;98841.06;105552;1280;138233;-71
2022/10/04 12:38:15;;;;;;;3.80;2.30;;;;;;;13.70;66.85;98841.14;105494;1280;25527;-70
2022/10/04 12:40:59;;;;;;;4.80;2.20;;;;;;;13.57;67.14;98840.11;104597;1288;139063;-71
2022/10/04 12:44:06;;;;;;;6.10;2.40;;;;;;;13.59;67.96;98840.41;104850;1287;24246;-71